Time;durP1;ratioP1;P1;durP2;ratioP2;P2;SDS_P1;SDS_P2;PMS_P1;PMS_P2;Temp;Humidity;BMP_temperature;BMP_pressure;BME280_temperature;BME280_humidity;BME280_pressure;Samples;Min_cycle;Max_cycle;Signal;HPM_P1;HPM_P2
2019/08/27 00:03:48;;;;;;;15.6;13.9;;;;;;;17.39;86.0498;940.9844;;;;
2019/08/27 00:06:10;;;;;;;16.5;13.7;;;;;;;17.45;85.16895;940.992;;;;
2019/08/27 00:08:35;;;;;;;18.4;14.9;;;;;;;17.38;85.71289;940.9797;;;;
2019/08/27 00:11:09;;;;;;;19;15.5;;;;;;;17.38;85.79395;940.9347;;;;
2019/08/27 00:13:34;;;;;;;21.1;16.7;;;;;;;17.08;87.51953;940.9379;;;;
2019/08/27 00:16:03;;;;;;;18.7;16;;;;;;;17.18;87.20313;940.808;;;;
2019/08/27 00:18:30;;;;;;;18.6;15.8;;;;;;;16.99;87.42188;940.8791;;;;
2019/08/27 00:21:21;;;;;;;19.2;15.9;;;;;;;16.91;87.86719;940.8945;;;;
2019/08/27 00:23:56;;;;;;;19.8;15.9;;;;;;;16.79;87.93652;940.8102;;;;
2019/08/27 00:26:36;;;;;;;19.2;16.6;;;;;;;16.71;88.2793;940.8094;;;;
2019/08/27 00:29:09;;;;;;;19.5;15.7;;;;;;;16.61;88.79199;940.8066;;;;
2019/08/27 00:31:32;;;;;;;17.4;15.5;;;;;;;16.61;88.84961;940.7285;;;;
2019/08/27 00:34:00;;;;;;;16.8;14.6;;;;;;;16.46;89.75586;940.7228;;;;
2019/08/27 00:36:32;;;;;;;17.7;15;;;;;;;16.63;88.5752;940.723;;;;
2019/08/27 00:39:03;;;;;;;17.5;15.3;;;;;;;16.48;89.00977;940.7748;;;;
2019/08/27 00:41:34;;;;;;;19.6;15.8;;;;;;;16.31;90.21289;940.7841;;;;
2019/08/27 00:44:00;;;;;;;18.1;16;;;;;;;16.39;89.74316;940.7809;;;;
2019/08/27 00:46:32;;;;;;;20.9;16.9;;;;;;;16.28;90.78516;940.7328;;;;
2019/08/27 00:48:58;;;;;;;19.4;16.1;;;;;;;16.4;89.66406;940.8058;;;;
2019/08/27 00:51:27;;;;;;;17.2;15;;;;;;;16.72;87.80664;940.7883;;;;
2019/08/27 00:53:52;;;;;;;19.8;16.2;;;;;;;16.61;88.1084;940.7792;;;;
2019/08/27 00:56:28;;;;;;;16.8;15;;;;;;;16.85;86.95313;940.6609;;;;
2019/08/27 00:58:54;;;;;;;18.4;15.7;;;;;;;16.98;86.16699;940.6474;;;;
2019/08/27 01:01:20;;;;;;;19.8;16.3;;;;;;;16.58;87.6748;940.6242;;;;
2019/08/27 01:03:44;;;;;;;19.4;17;;;;;;;16.5;88.41113;940.6564;;;;
2019/08/27 01:06:27;;;;;;;17.2;14.7;;;;;;;16.76;87.00488;940.6311;;;;
2019/08/27 01:09:23;;;;;;;19.9;15.3;;;;;;;16.88;85.89258;940.6284;;;;
2019/08/27 01:11:41;;;;;;;16.5;14.4;;;;;;;16.75;86.7002;940.7003;;;;
2019/08/27 01:14:05;;;;;;;18.8;15.6;;;;;;;16.39;88.27344;940.7078;;;;
2019/08/27 01:16:45;;;;;;;17.7;15.7;;;;;;;16.26;89.37012;940.6583;;;;
2019/08/27 01:19:23;;;;;;;16.8;15;;;;;;;16.48;88.20898;940.6888;;;;
2019/08/27 01:22:02;;;;;;;15.7;14.1;;;;;;;16.72;86.76367;940.6364;;;;
2019/08/27 01:24:35;;;;;;;17.4;15;;;;;;;16.37;87.86523;940.6959;;;;
2019/08/27 01:27:08;;;;;;;17.7;15.8;;;;;;;16.23;88.33496;940.669;;;;
2019/08/27 01:29:32;;;;;;;21.6;16.7;;;;;;;15.73;90.87695;940.6519;;;;
2019/08/27 01:32:04;;;;;;;18.9;16.9;;;;;;;15.76;90.72168;940.6573;;;;
2019/08/27 01:37:07;;;;;;;17.9;14.9;;;;;;;16.19;88.91406;940.6498;;;;
2019/08/27 01:39:43;;;;;;;17.1;14.8;;;;;;;16.25;88.44141;940.6568;;;;
2019/08/27 01:42:47;;;;;;;17.9;16;;;;;;;15.87;90.3623;940.7026;;;;
2019/08/27 01:44:46;;;;;;;16.2;14.5;;;;;;;16;90.35547;940.6277;;;;
2019/08/27 01:47:10;;;;;;;16.3;14.4;;;;;;;16.06;89.97559;940.6469;;;;
2019/08/27 01:49:45;;;;;;;16.5;14.7;;;;;;;15.97;90.82422;940.7242;;;;
2019/08/27 01:52:18;;;;;;;19.9;15.1;;;;;;;16.14;89.34473;940.7265;;;;
2019/08/27 01:54:49;;;;;;;16.3;14.6;;;;;;;16.35;88.25293;940.7065;;;;
2019/08/27 01:57:24;;;;;;;16.5;14.8;;;;;;;16.23;88.13672;940.6763;;;;
2019/08/27 01:59:47;;;;;;;16.8;15;;;;;;;16.05;88.9209;940.7159;;;;
2019/08/27 02:02:17;;;;;;;15.7;14;;;;;;;16.02;89.59766;940.6777;;;;
2019/08/27 02:04:51;;;;;;;16.4;13.5;;;;;;;16.23;88.21582;940.7325;;;;
2019/08/27 02:07:16;;;;;;;16.3;13.9;;;;;;;16.2;88.25684;940.6907;;;;
2019/08/27 02:09:41;;;;;;;16;14.4;;;;;;;16.22;88.34082;940.7012;;;;
2019/08/27 02:12:17;;;;;;;16.9;13.8;;;;;;;16.29;87.83496;940.7321;;;;
2019/08/27 02:14:49;;;;;;;15.5;13.5;;;;;;;16.43;86.99609;940.715;;;;
2019/08/27 02:17:15;;;;;;;16.7;13.6;;;;;;;16.45;86.57129;940.8105;;;;
2019/08/27 02:19:39;;;;;;;15.3;13.7;;;;;;;16.51;86.26953;940.822;;;;
2019/08/27 02:22:03;;;;;;;15;13.2;;;;;;;16.59;85.43066;940.9096;;;;
2019/08/27 02:24:34;;;;;;;15.4;12.9;;;;;;;16.66;84.94531;940.824;;;;
2019/08/27 02:27:47;;;;;;;19.3;15.4;;;;;;;15.71;88.79395;940.8045;;;;
2019/08/27 02:30:14;;;;;;;16.3;14.4;;;;;;;15.76;88.78027;940.821;;;;
2019/08/27 02:32:54;;;;;;;15.5;14;;;;;;;15.84;88.46094;940.8898;;;;
2019/08/27 02:35:18;;;;;;;15.4;13.8;;;;;;;15.92;88.26953;940.8596;;;;
2019/08/27 02:40:22;;;;;;;15.8;13.7;;;;;;;16.18;86.80859;940.9889;;;;
2019/08/27 02:43:31;;;;;;;15.6;12.5;;;;;;;16.28;86.06543;940.9924;;;;
2019/08/27 02:45:59;;;;;;;13.7;12.3;;;;;;;16.26;85.78223;940.9621;;;;
2019/08/27 02:48:31;;;;;;;14;12.5;;;;;;;16.2;85.84082;940.9293;;;;
2019/08/27 02:51:00;;;;;;;16.6;13.4;;;;;;;16.18;86.27539;940.9367;;;;
2019/08/27 02:53:26;;;;;;;16.4;13.9;;;;;;;16.05;86.58594;941.0044;;;;
2019/08/27 02:55:52;;;;;;;15.9;13.4;;;;;;;16.05;86.54102;941.0438;;;;
2019/08/27 02:58:17;;;;;;;16.2;13.7;;;;;;;15.69;88.61719;941.0391;;;;
2019/08/27 03:00:56;;;;;;;20.4;15.1;;;;;;;15.46;90.11719;941.0765;;;;
2019/08/27 03:03:21;;;;;;;18.7;15.2;;;;;;;15.43;90.51758;941.0222;;;;
2019/08/27 03:06:04;;;;;;;20.3;15.3;;;;;;;15.55;89.75391;941.1661;;;;
2019/08/27 03:08:37;;;;;;;17.9;14.9;;;;;;;15.61;89.24512;941.0633;;;;
2019/08/27 03:11:06;;;;;;;21.5;15.5;;;;;;;15.54;89.51172;941.1139;;;;
2019/08/27 03:13:30;;;;;;;17.6;15.1;;;;;;;15.68;88.56836;941.1322;;;;
2019/08/27 03:16:04;;;;;;;17.7;14.6;;;;;;;15.71;88.04297;941.0839;;;;
2019/08/27 03:18:32;;;;;;;20.5;15.1;;;;;;;15.78;87.56055;941.0875;;;;
2019/08/27 03:21:01;;;;;;;16.9;13.9;;;;;;;15.73;87.72266;941.0364;;;;
2019/08/27 03:23:29;;;;;;;19;14.8;;;;;;;15.68;88.38379;941.0825;;;;
2019/08/27 03:25:56;;;;;;;20.2;15;;;;;;;15.77;86.91309;941.0818;;;;
2019/08/27 03:28:27;;;;;;;22.5;16.2;;;;;;;15.81;87.16113;941.015;;;;
2019/08/27 03:30:52;;;;;;;19;14.7;;;;;;;15.92;86.59375;941.0917;;;;
2019/08/27 03:33:26;;;;;;;15.6;13.4;;;;;;;15.96;86.47559;941.1348;;;;
2019/08/27 03:35:54;;;;;;;16.4;13.2;;;;;;;15.88;86.54004;941.108;;;;
2019/08/27 03:38:22;;;;;;;15.5;12.9;;;;;;;15.89;86.64746;941.1111;;;;
2019/08/27 03:40:53;;;;;;;15.5;13.2;;;;;;;15.98;85.89063;941.0488;;;;
2019/08/27 03:43:36;;;;;;;15.4;12.9;;;;;;;16.03;85.46973;941.1347;;;;
2019/08/27 03:46:10;;;;;;;14.5;12.5;;;;;;;15.81;86.60645;941.1708;;;;
2019/08/27 03:48:39;;;;;;;16.5;12.6;;;;;;;15.87;86.23633;941.1346;;;;
2019/08/27 03:51:05;;;;;;;14.8;12.8;;;;;;;15.9;85.86133;941.0421;;;;
2019/08/27 03:56:21;;;;;;;15.9;12.2;;;;;;;15.98;85.64648;941.0672;;;;
2019/08/27 03:58:35;;;;;;;17.5;12.9;;;;;;;15.95;85.72168;941.0104;;;;
2019/08/27 07:50:39;;;;;;;6.4;4.8;;;;;;;32.73;34.70117;941.5878;;;;
2019/08/27 07:54:47;;;;;;;4.5;3.4;;;;;;;33.56;35.06641;941.5772;;;;
2019/08/27 08:27:24;;;;;;;5.8;3.4;;;;;;;32.19;32.58691;941.3842;;;;
2019/08/27 08:29:46;;;;;;;6.1;3.5;;;;;;;32.67;34.07422;941.4545;;;;
2019/08/27 08:32:10;;;;;;;3.5;3.2;;;;;;;32.76;34.4043;941.4769;;;;
2019/08/27 08:34:43;;;;;;;3.6;3.3;;;;;;;32.65;33.58008;941.4161;;;;
2019/08/27 08:37:23;;;;;;;4.1;3.6;;;;;;;33.13;33.66309;941.3801;;;;
2019/08/27 08:41:07;;;;;;;3.4;3.1;;;;;;;31.46;35.70703;941.2778;;;;
2019/08/27 08:43:50;;;;;;;4.1;3.4;;;;;;;31.96;34.01953;941.2855;;;;
2019/08/27 08:46:15;;;;;;;4.9;3.3;;;;;;;33.18;33.43848;941.2981;;;;
2019/08/27 08:48:48;;;;;;;3.2;2.9;;;;;;;34.59;32.31348;941.1813;;;;
2019/08/27 08:52:22;;;;;;;4;3;;;;;;;35.2;29.29004;941.1106;;;;
2019/08/27 08:54:54;;;;;;;4.5;3;;;;;;;35.02;31.13672;941.0714;;;;
2019/08/27 08:57:18;;;;;;;3.2;2.9;;;;;;;34.51;30.45117;941.0779;;;;
2019/08/27 08:59:56;;;;;;;4;3;;;;;;;34.26;29.85742;941.0538;;;;
2019/08/27 09:02:21;;;;;;;4.7;2.9;;;;;;;33.73;29.0166;941.113;;;;
2019/08/27 09:04:53;;;;;;;4.2;3.1;;;;;;;33.81;29.73047;941.1633;;;;
2019/08/27 09:07:19;;;;;;;4.1;3.3;;;;;;;32.69;31.90234;941.1845;;;;
2019/08/27 09:09:55;;;;;;;4.6;3.5;;;;;;;32.16;32.26074;941.1393;;;;
2019/08/27 09:12:26;;;;;;;3.9;3.5;;;;;;;32.3;33.60254;941.1259;;;;
2019/08/27 09:14:59;;;;;;;4.2;3.6;;;;;;;31.02;33.45996;941.0707;;;;
2019/08/27 09:17:30;;;;;;;4.9;3.7;;;;;;;30.36;35.08301;941.0718;;;;
2019/08/27 09:19:51;;;;;;;4.5;3.7;;;;;;;30.27;36.83105;941.0996;;;;
2019/08/27 09:22:18;;;;;;;4.2;3.6;;;;;;;30.61;38.42285;941.0197;;;;
2019/08/27 09:25:02;;;;;;;4.6;3.7;;;;;;;30.87;40.47754;941.0281;;;;
2019/08/27 09:27:22;;;;;;;5.1;3.7;;;;;;;31.4;36.04883;940.9506;;;;
2019/08/27 09:29:59;;;;;;;4;3.6;;;;;;;31.64;37.27832;940.9475;;;;
2019/08/27 09:32:38;;;;;;;4.7;4.1;;;;;;;31.29;39.4502;940.8929;;;;
2019/08/27 09:35:04;;;;;;;4.5;4.1;;;;;;;30.93;43.32813;940.9883;;;;
2019/08/27 09:37:35;;;;;;;5.7;4.1;;;;;;;30.97;44.41992;940.9441;;;;
2019/08/27 09:40:09;;;;;;;5.7;4;;;;;;;30.87;42.05566;940.9469;;;;
2019/08/27 09:42:37;;;;;;;6.2;4.1;;;;;;;30.67;43.07715;940.9789;;;;
2019/08/27 09:45:05;;;;;;;6.5;4.1;;;;;;;30.52;43.09766;940.967;;;;
2019/08/27 09:47:41;;;;;;;5.5;4;;;;;;;30.53;43.91113;940.9105;;;;
2019/08/27 09:53:01;;;;;;;11.4;5;;;;;;;30.76;45.47559;940.921;;;;
2019/08/27 09:55:58;;;;;;;11.4;5.6;;;;;;;31.06;41.24805;940.9567;;;;
2019/08/27 09:58:05;;;;;;;8.7;5.3;;;;;;;31.27;39.91504;940.9039;;;;
2019/08/27 10:00:33;;;;;;;9.5;5.3;;;;;;;30.88;42.64258;940.8606;;;;
2019/08/27 10:03:14;;;;;;;27.1;10;;;;;;;30.95;43.73633;940.8783;;;;
2019/08/27 10:05:44;;;;;;;8.8;5.4;;;;;;;30.67;41.89258;940.842;;;;
2019/08/27 10:08:06;;;;;;;4.2;3.5;;;;;;;30.46;42.66211;940.8582;;;;
2019/08/27 10:10:52;;;;;;;8.2;4.7;;;;;;;30.38;43.70508;940.8489;;;;
2019/08/27 10:13:07;;;;;;;5.9;3.4;;;;;;;30.27;44.16113;940.7867;;;;
2019/08/27 10:15:29;;;;;;;6.5;4.1;;;;;;;30.08;43.29492;940.7648;;;;
2019/08/27 10:18:01;;;;;;;6.8;4.5;;;;;;;30.44;42.69629;940.7083;;;;
2019/08/27 10:20:28;;;;;;;5;4.1;;;;;;;30.79;44.25879;940.7216;;;;
2019/08/27 10:22:59;;;;;;;4.6;4.1;;;;;;;31.41;41.45996;940.6981;;;;
2019/08/27 10:26:08;;;;;;;6.5;4.1;;;;;;;31.57;41.73828;940.658;;;;
2019/08/27 10:28:20;;;;;;;4.4;4;;;;;;;32.12;39.46191;940.6474;;;;
2019/08/27 10:30:47;;;;;;;6.9;4.1;;;;;;;32.23;39.47266;940.6605;;;;
2019/08/27 10:33:17;;;;;;;5.1;4.1;;;;;;;32.59;39.92383;940.6199;;;;
2019/08/27 10:35:40;;;;;;;4.9;3.4;;;;;;;32.77;37.06934;940.5948;;;;
2019/08/27 10:38:07;;;;;;;6.4;3.4;;;;;;;32.86;38.71094;940.5712;;;;
2019/08/27 10:40:39;;;;;;;6.8;3.5;;;;;;;32.75;38.00488;940.5818;;;;
2019/08/27 10:43:11;;;;;;;3.7;3.2;;;;;;;33;37.90527;940.5455;;;;
2019/08/27 10:45:43;;;;;;;5.3;3.7;;;;;;;33.03;36.57422;940.5125;;;;
2019/08/27 10:48:18;;;;;;;3.5;3.2;;;;;;;33.06;35.59277;940.5276;;;;
2019/08/27 10:51:00;;;;;;;4.3;3.1;;;;;;;32.87;34.06445;940.45;;;;
2019/08/27 10:53:33;;;;;;;6.9;3.4;;;;;;;32.92;35.8457;940.5145;;;;
2019/08/27 10:56:01;;;;;;;3.9;3.4;;;;;;;33.12;33.95117;940.4713;;;;
2019/08/27 10:58:28;;;;;;;3.8;3.5;;;;;;;33.26;33.57617;940.5058;;;;
2019/08/27 11:01:06;;;;;;;3.9;3.5;;;;;;;33.33;33.2207;940.4736;;;;
2019/08/27 11:04:03;;;;;;;4.2;3.4;;;;;;;33.41;34.83887;940.4808;;;;
2019/08/27 11:06:21;;;;;;;4;3.5;;;;;;;33.93;32.75879;940.4398;;;;
2019/08/27 11:08:49;;;;;;;4;3.6;;;;;;;33.85;34.95605;940.4436;;;;
2019/08/27 11:11:14;;;;;;;6;4;;;;;;;33.83;35.20703;940.389;;;;
2019/08/27 11:13:50;;;;;;;5;4;;;;;;;33.98;36.48242;940.3373;;;;
2019/08/27 11:16:26;;;;;;;4.9;4.2;;;;;;;34.31;36.43652;940.2734;;;;
2019/08/27 11:19:04;;;;;;;4.7;3.7;;;;;;;34.01;34.16211;940.3265;;;;
2019/08/27 11:21:26;;;;;;;4.4;4;;;;;;;33.7;35.1123;940.3141;;;;
2019/08/27 11:26:18;;;;;;;4.4;4;;;;;;;34.13;34.76074;940.2869;;;;
2019/08/27 11:29:03;;;;;;;4.6;4.2;;;;;;;34.03;36.39063;940.298;;;;
2019/08/27 11:31:30;;;;;;;4.8;4.3;;;;;;;34.1;34.92773;940.2773;;;;
2019/08/27 11:34:17;;;;;;;5;4.5;;;;;;;34.07;37.66895;940.2488;;;;
2019/08/27 11:36:59;;;;;;;5;4.5;;;;;;;34.16;37.11133;940.2288;;;;
2019/08/27 11:39:14;;;;;;;5.3;4.4;;;;;;;34.01;36.14844;940.2264;;;;
2019/08/27 11:41:39;;;;;;;6.2;4.4;;;;;;;33.71;34.92188;940.1744;;;;
2019/08/27 11:44:12;;;;;;;5.3;4.3;;;;;;;33.46;37.78809;940.1611;;;;
2019/08/27 11:47:05;;;;;;;5.2;4.8;;;;;;;33.32;37.06641;940.1158;;;;
2019/08/27 11:49:36;;;;;;;5.3;4.8;;;;;;;33.18;38.17285;940.0661;;;;
2019/08/27 11:52:08;;;;;;;6.4;4.8;;;;;;;32.93;38.96875;940.0467;;;;
2019/08/27 11:55:01;;;;;;;5.7;5;;;;;;;32.83;39.56055;940.0303;;;;
2019/08/27 11:57:16;;;;;;;5.7;4.9;;;;;;;32.98;39.71777;939.9944;;;;
2019/08/27 11:59:49;;;;;;;7.6;5.2;;;;;;;32.95;41.63672;939.9924;;;;
2019/08/27 12:02:16;;;;;;;5.4;4.9;;;;;;;32.7;40.46191;939.9224;;;;
2019/08/27 12:04:49;;;;;;;5.7;5.2;;;;;;;32.28;41.33496;939.9456;;;;
2019/08/27 12:07:17;;;;;;;6.6;5.2;;;;;;;32.08;42.56348;939.909;;;;
2019/08/27 12:09:44;;;;;;;5.5;5;;;;;;;32.04;40.75;939.9439;;;;
2019/08/27 12:12:16;;;;;;;5.4;4.9;;;;;;;31.95;41.01758;939.8934;;;;
2019/08/27 12:14:45;;;;;;;7;5;;;;;;;31.82;42.65918;939.9381;;;;
2019/08/27 12:17:16;;;;;;;5.4;4.9;;;;;;;31.62;42.73633;939.8876;;;;
2019/08/27 12:19:59;;;;;;;6.3;5;;;;;;;31.78;40.97852;939.8705;;;;
2019/08/27 12:22:25;;;;;;;5.8;5.1;;;;;;;31.55;43.00488;939.8383;;;;
2019/08/27 12:24:58;;;;;;;6.5;5.4;;;;;;;31.64;42.1875;939.825;;;;
2019/08/27 12:27:28;;;;;;;6;5.4;;;;;;;31.47;41.87207;939.7897;;;;
2019/08/27 12:30:03;;;;;;;8.3;5.4;;;;;;;31.5;41.80273;939.807;;;;
2019/08/27 12:32:35;;;;;;;7.8;5.4;;;;;;;31.55;40.77734;939.7876;;;;
2019/08/27 12:35:01;;;;;;;5.9;5.3;;;;;;;31.61;41.3584;939.7612;;;;
2019/08/27 12:37:37;;;;;;;7.3;5.4;;;;;;;31.47;41.88477;939.6717;;;;
2019/08/27 12:40:04;;;;;;;6;5.5;;;;;;;31.59;42.56445;939.7001;;;;
2019/08/27 12:42:43;;;;;;;7.6;5.6;;;;;;;31.62;41.94531;939.6914;;;;
2019/08/27 12:45:10;;;;;;;5.9;5.2;;;;;;;31.62;42.50879;939.6937;;;;
2019/08/27 12:47:35;;;;;;;6.8;5.4;;;;;;;31.56;42.35938;939.6641;;;;
2019/08/27 12:53:07;;;;;;;6.2;5.6;;;;;;;31.75;42.35352;939.5999;;;;
2019/08/27 12:55:34;;;;;;;8.5;5.3;;;;;;;31.81;41.24414;939.5739;;;;
2019/08/27 13:00:39;;;;;;;5.9;5.4;;;;;;;32.02;42.6416;939.5344;;;;
2019/08/27 13:03:18;;;;;;;6;5.4;;;;;;;32.03;43.07422;939.5261;;;;
2019/08/27 13:05:52;;;;;;;7;5.3;;;;;;;31.95;41.88086;939.582;;;;
2019/08/27 13:08:24;;;;;;;5.7;5.2;;;;;;;31.98;42.3623;939.5572;;;;
2019/08/27 13:10:51;;;;;;;6.7;5.6;;;;;;;31.86;42.30273;939.5254;;;;
2019/08/27 13:13:22;;;;;;;5.5;5;;;;;;;31.84;42.55371;939.4744;;;;
2019/08/27 13:15:46;;;;;;;6.1;5.5;;;;;;;31.49;43.03516;939.4424;;;;
2019/08/27 13:18:16;;;;;;;6.1;5.6;;;;;;;31.25;43.14355;939.4378;;;;
2019/08/27 13:20:44;;;;;;;6.5;5.6;;;;;;;31.16;42.84863;939.3806;;;;
2019/08/27 13:23:14;;;;;;;7.9;5.9;;;;;;;31.07;44.38184;939.3331;;;;
2019/08/27 13:25:43;;;;;;;6;5.5;;;;;;;30.88;45.09277;939.2996;;;;
2019/08/27 13:28:05;;;;;;;5.8;5.3;;;;;;;30.91;46.51855;939.2913;;;;
2019/08/27 13:30:35;;;;;;;6.1;5.5;;;;;;;30.62;45.39063;939.2975;;;;
2019/08/27 13:33:05;;;;;;;8.2;5.7;;;;;;;30.48;45.66211;939.3379;;;;
2019/08/27 13:35:35;;;;;;;6.3;5.8;;;;;;;30.37;44.42188;939.2756;;;;
2019/08/27 13:38:01;;;;;;;6.5;5.9;;;;;;;30.37;44.20703;939.2648;;;;
2019/08/27 13:40:56;;;;;;;6.1;5.6;;;;;;;30.47;43.32031;939.193;;;;
2019/08/27 13:43:29;;;;;;;6.4;5.8;;;;;;;30.38;44.58984;939.1655;;;;
2019/08/27 13:45:59;;;;;;;6.3;5.7;;;;;;;30.5;43.15723;939.1646;;;;
2019/08/27 13:48:29;;;;;;;6.7;5.8;;;;;;;30.45;44.37012;939.1147;;;;
2019/08/27 13:50:53;;;;;;;7.2;5.7;;;;;;;30.57;45.06348;939.1852;;;;
2019/08/27 13:53:18;;;;;;;7.6;5.3;;;;;;;30.54;44.28223;939.153;;;;
2019/08/27 13:55:54;;;;;;;8.9;5.9;;;;;;;30.6;44.34961;939.1177;;;;
2019/08/27 13:58:18;;;;;;;6.6;5.9;;;;;;;30.58;45.75586;939.1545;;;;
2019/08/27 14:01:04;;;;;;;8.1;6;;;;;;;30.52;44.23242;939.1478;;;;
2019/08/27 14:03:30;;;;;;;7.2;5.6;;;;;;;30.46;44.09473;939.1584;;;;
2019/08/27 14:06:16;;;;;;;6.8;6.2;;;;;;;30.56;44.97754;939.1227;;;;
2019/08/27 14:08:34;;;;;;;6.8;5.8;;;;;;;30.63;45.42676;939.2073;;;;
2019/08/27 14:11:10;;;;;;;8.2;6;;;;;;;30.51;45.53418;939.1741;;;;
2019/08/27 14:13:41;;;;;;;6.7;6;;;;;;;30.57;44.3457;939.147;;;;
2019/08/27 14:16:10;;;;;;;6.2;5.6;;;;;;;30.35;43.5;939.1804;;;;
2019/08/27 14:18:50;;;;;;;8.5;6.2;;;;;;;30.16;45.92871;939.2168;;;;
2019/08/27 14:21:16;;;;;;;6.1;5.5;;;;;;;29.91;45.5459;939.1571;;;;
2019/08/27 14:23:46;;;;;;;7;6;;;;;;;29.67;46.0332;939.1649;;;;
2019/08/27 14:26:18;;;;;;;8.1;5.8;;;;;;;29.93;45.37988;939.2469;;;;
2019/08/27 14:29:09;;;;;;;7.5;6;;;;;;;30.04;45.77344;939.1975;;;;
2019/08/27 14:31:32;;;;;;;7.7;5.9;;;;;;;29.98;45.86328;939.1746;;;;
2019/08/27 14:34:06;;;;;;;6.7;6.1;;;;;;;30.05;46.65723;939.1013;;;;
2019/08/27 14:37:15;;;;;;;6.5;5.9;;;;;;;30.12;46.3418;939.1711;;;;
2019/08/27 14:39:54;;;;;;;8.8;6.5;;;;;;;29.63;46.91211;939.1669;;;;
2019/08/27 14:42:27;;;;;;;6.7;6.1;;;;;;;29.5;47.88867;939.1824;;;;
2019/08/27 14:45:05;;;;;;;6.8;6.1;;;;;;;29.29;47.93652;939.1558;;;;
2019/08/27 14:47:40;;;;;;;7.4;6.4;;;;;;;29.22;47.04785;939.2025;;;;
2019/08/27 14:50:10;;;;;;;8;6.3;;;;;;;29.11;46.64258;939.2291;;;;
2019/08/27 14:52:44;;;;;;;7.4;6.2;;;;;;;29.1;47.67871;939.173;;;;
2019/08/27 14:55:07;;;;;;;6.9;6.2;;;;;;;29.27;47.93457;939.188;;;;
2019/08/27 14:57:34;;;;;;;8.2;6.3;;;;;;;29.29;47.78223;939.1604;;;;
2019/08/27 15:00:08;;;;;;;6.7;6.1;;;;;;;29.1;48.58301;939.2097;;;;
2019/08/27 15:02:32;;;;;;;7.3;6.5;;;;;;;28.86;47.87988;939.1591;;;;
2019/08/27 15:05:08;;;;;;;7.6;5.9;;;;;;;29.01;48.22754;939.1373;;;;
2019/08/27 15:07:39;;;;;;;6.7;6;;;;;;;29.11;47.8584;939.1592;;;;
2019/08/27 15:10:14;;;;;;;7.9;6.3;;;;;;;29.12;49.31152;939.1816;;;;
2019/08/27 15:12:39;;;;;;;10.3;6.2;;;;;;;29.23;48.93164;939.1205;;;;
2019/08/27 15:15:17;;;;;;;6.9;6.2;;;;;;;29.18;48.69922;939.1086;;;;
2019/08/27 15:17:43;;;;;;;7.3;6.2;;;;;;;28.95;48.88867;939.2253;;;;
2019/08/27 15:20:17;;;;;;;7.7;6.7;;;;;;;28.96;49.55664;939.204;;;;
2019/08/27 15:23:04;;;;;;;9.6;6.2;;;;;;;28.94;48.41211;939.1731;;;;
2019/08/27 15:25:31;;;;;;;8.5;6.5;;;;;;;28.88;48.63184;939.1916;;;;
2019/08/27 15:28:02;;;;;;;8.1;6.3;;;;;;;28.91;48.89648;939.1834;;;;
2019/08/27 15:30:28;;;;;;;7.3;6.5;;;;;;;28.88;49.10742;939.2227;;;;
2019/08/27 15:32:58;;;;;;;6.9;6.3;;;;;;;28.41;49.0918;939.1791;;;;
2019/08/27 15:35:34;;;;;;;9.4;6.5;;;;;;;28.39;49.31641;939.1456;;;;
2019/08/27 15:38:06;;;;;;;7.1;6.4;;;;;;;28.3;49.74609;939.1345;;;;
2019/08/27 15:40:38;;;;;;;9.3;6.3;;;;;;;28.26;49.78809;939.2084;;;;
2019/08/27 15:43:12;;;;;;;11;6.6;;;;;;;28.38;49.46973;939.1521;;;;
2019/08/27 15:45:42;;;;;;;8.6;6.7;;;;;;;28.14;49.78711;939.0458;;;;
2019/08/27 15:48:04;;;;;;;7;5.8;;;;;;;28.12;50.50977;939.1017;;;;
2019/08/27 15:50:32;;;;;;;7.4;6.1;;;;;;;27.97;49.78027;939.0964;;;;
2019/08/27 15:53:05;;;;;;;7.2;6.3;;;;;;;28.13;49.67969;939.1555;;;;
2019/08/27 15:55:32;;;;;;;7.8;6.1;;;;;;;28.12;49.13086;939.1511;;;;
2019/08/27 15:57:56;;;;;;;8;6.6;;;;;;;28.16;50.07422;939.1599;;;;
2019/08/27 16:00:30;;;;;;;6.4;5.8;;;;;;;28.22;49.1416;939.1692;;;;
2019/08/27 16:02:56;;;;;;;6.7;5.7;;;;;;;27.84;49.56445;939.1789;;;;
2019/08/27 16:05:23;;;;;;;7.9;6.4;;;;;;;27.93;50.25;939.1422;;;;
2019/08/27 16:08:05;;;;;;;9;6.2;;;;;;;27.97;50.54004;939.1454;;;;
2019/08/27 16:10:31;;;;;;;8.4;6.3;;;;;;;27.87;50.38672;939.1692;;;;
2019/08/27 16:12:54;;;;;;;9.4;6.2;;;;;;;27.99;50.42383;939.1827;;;;
2019/08/27 16:15:23;;;;;;;7;6.1;;;;;;;28.03;51.66406;939.1534;;;;
2019/08/27 16:17:53;;;;;;;8;6.2;;;;;;;27.69;51.66016;939.1167;;;;
2019/08/27 16:20:26;;;;;;;7;6;;;;;;;27.65;51.29883;939.1036;;;;
2019/08/27 16:22:55;;;;;;;7.6;6.3;;;;;;;27.71;51.71094;939.0809;;;;
2019/08/27 16:25:29;;;;;;;9;6;;;;;;;27.61;51.70898;939.0381;;;;
2019/08/27 16:27:55;;;;;;;8.3;6.3;;;;;;;27.57;51.93164;939.1105;;;;
2019/08/27 16:30:23;;;;;;;9.5;6.6;;;;;;;27.47;52.37109;939.0179;;;;
2019/08/27 16:32:50;;;;;;;7;6.3;;;;;;;27.42;51.7002;939.0306;;;;
2019/08/27 16:35:23;;;;;;;8.3;6.3;;;;;;;27.47;52.22852;938.9989;;;;
2019/08/27 16:37:51;;;;;;;6.7;6.1;;;;;;;27.45;52;938.9758;;;;
2019/08/27 16:40:25;;;;;;;9.2;6.2;;;;;;;27.33;51.60742;938.9573;;;;
2019/08/27 16:42:50;;;;;;;7.2;5.9;;;;;;;27.24;51.57324;939.0176;;;;
2019/08/27 16:45:24;;;;;;;7.1;6;;;;;;;27.21;51.66406;939.0569;;;;
2019/08/27 16:47:47;;;;;;;8.8;6.1;;;;;;;27.26;51.20801;939.0696;;;;
2019/08/27 16:50:18;;;;;;;7.5;6.4;;;;;;;27.27;51.57617;939.0506;;;;
2019/08/27 16:52:49;;;;;;;6.8;6;;;;;;;27.05;51.38379;939.0581;;;;
2019/08/27 16:55:14;;;;;;;7.6;6.1;;;;;;;27.1;51.5459;939.1174;;;;
2019/08/27 16:58:13;;;;;;;7.2;6.3;;;;;;;27.08;52.24219;939.1611;;;;
2019/08/27 17:00:52;;;;;;;8.5;6;;;;;;;27.03;52.29492;939.2012;;;;
2019/08/27 17:03:11;;;;;;;7;5.7;;;;;;;26.99;53.77246;939.085;;;;
2019/08/27 17:05:37;;;;;;;7.5;6.4;;;;;;;26.91;53.69238;939.1596;;;;
2019/08/27 17:08:06;;;;;;;10.3;6.9;;;;;;;26.75;54.40723;939.1136;;;;
2019/08/27 17:10:31;;;;;;;11.3;7.2;;;;;;;26.49;57.3125;939.1372;;;;
2019/08/27 17:13:07;;;;;;;8.1;6.8;;;;;;;26.26;56.55957;939.0693;;;;
2019/08/27 17:15:39;;;;;;;13;7;;;;;;;25.99;57.41309;939.0945;;;;
2019/08/27 17:18:11;;;;;;;15.3;7.2;;;;;;;25.79;58.77148;939.1623;;;;
2019/08/27 17:21:05;;;;;;;10.4;6.6;;;;;;;25.7;58.42871;939.1439;;;;
2019/08/27 17:23:28;;;;;;;8.8;6.1;;;;;;;25.57;57.93848;939.2644;;;;
2019/08/27 17:25:57;;;;;;;10;6;;;;;;;25.53;57.62598;939.2647;;;;
2019/08/27 17:28:29;;;;;;;9.1;6.5;;;;;;;25.53;57.29492;939.322;;;;
2019/08/27 17:31:01;;;;;;;8.2;6.2;;;;;;;25.47;57.15723;939.3495;;;;
2019/08/27 17:33:38;;;;;;;9.9;6.2;;;;;;;25.3;57.54883;939.4487;;;;
2019/08/27 17:36:06;;;;;;;9.1;6;;;;;;;25.3;57.9873;939.4673;;;;
2019/08/27 17:38:41;;;;;;;8.7;6.4;;;;;;;25.3;58.40039;939.4877;;;;
2019/08/27 17:41:08;;;;;;;9.7;6.7;;;;;;;25.27;58.53711;939.5014;;;;
2019/08/27 17:43:42;;;;;;;56.4;8.7;;;;;;;25.26;58.60645;939.5068;;;;
2019/08/27 17:46:14;;;;;;;12;6.2;;;;;;;25.1;58.7627;939.5887;;;;
2019/08/27 17:48:40;;;;;;;11.1;6;;;;;;;24.99;59.2793;939.584;;;;
2019/08/27 17:51:09;;;;;;;9.6;5.5;;;;;;;24.93;58.95215;939.5786;;;;
2019/08/27 17:54:50;;;;;;;8;6;;;;;;;24.92;58.63379;939.6277;;;;
2019/08/27 17:56:16;;;;;;;8.1;5.7;;;;;;;24.89;58.71191;939.6007;;;;
2019/08/27 17:58:45;;;;;;;10.5;6;;;;;;;24.82;60.04688;939.6736;;;;
2019/08/27 18:01:43;;;;;;;11.5;7;;;;;;;24.66;59.23535;939.6878;;;;
2019/08/27 18:03:45;;;;;;;10.2;6.7;;;;;;;24.46;60.40039;939.6738;;;;
2019/08/27 18:06:16;;;;;;;10.6;6.5;;;;;;;24.39;60.69727;939.7033;;;;
2019/08/27 18:09:16;;;;;;;10.2;6.5;;;;;;;24.41;60.71094;939.6959;;;;
2019/08/27 18:11:28;;;;;;;10.8;6.8;;;;;;;24.37;60.94043;939.7418;;;;
2019/08/27 18:14:01;;;;;;;11.8;7;;;;;;;24.23;60.60547;939.7056;;;;
2019/08/27 18:16:33;;;;;;;9.9;6.4;;;;;;;24.22;60.99023;939.728;;;;
2019/08/27 18:19:10;;;;;;;8.7;6.5;;;;;;;24.17;61.31348;939.7795;;;;
2019/08/27 18:21:33;;;;;;;7.8;6;;;;;;;24.11;61.24609;939.8274;;;;
2019/08/27 18:24:00;;;;;;;12.2;6.5;;;;;;;24.05;62.16797;939.8122;;;;
2019/08/27 18:26:33;;;;;;;11.3;6.7;;;;;;;24.01;62.16309;939.8272;;;;
2019/08/27 18:29:01;;;;;;;15.7;7.2;;;;;;;23.98;62.2998;939.772;;;;
2019/08/27 18:31:29;;;;;;;13.2;7.1;;;;;;;23.92;63.11523;939.8544;;;;
2019/08/27 18:33:56;;;;;;;11.1;7.2;;;;;;;23.86;63.21387;939.8794;;;;
2019/08/27 18:36:30;;;;;;;10.6;7.7;;;;;;;23.85;64.56543;939.9369;;;;
2019/08/27 18:39:08;;;;;;;14.9;7.4;;;;;;;23.83;63.99707;939.967;;;;
2019/08/27 18:41:26;;;;;;;9.8;7.5;;;;;;;23.76;63.7627;940.0231;;;;
2019/08/27 18:44:00;;;;;;;9.7;7.5;;;;;;;23.72;64.22852;939.9808;;;;
2019/08/27 18:46:33;;;;;;;10.5;7.5;;;;;;;23.63;64.24023;940.075;;;;
2019/08/27 18:49:13;;;;;;;10.9;8;;;;;;;23.54;64.95703;940.1016;;;;
2019/08/27 18:51:44;;;;;;;10.8;7.7;;;;;;;23.53;63.84863;940.0947;;;;
2019/08/27 18:54:08;;;;;;;10.2;8;;;;;;;23.52;64.44727;940.1559;;;;
2019/08/27 18:56:45;;;;;;;12.5;8.2;;;;;;;23.44;64.53027;940.2231;;;;
2019/08/27 18:59:10;;;;;;;10.4;8.5;;;;;;;23.38;65.10938;940.259;;;;
2019/08/27 19:04:02;;;;;;;12.7;8.1;;;;;;;23.34;64.44531;940.302;;;;
2019/08/27 19:06:36;;;;;;;11.6;7.9;;;;;;;23.26;64.52637;940.262;;;;
2019/08/27 19:09:12;;;;;;;11.4;8;;;;;;;23.16;65.42969;940.2676;;;;
2019/08/27 19:11:37;;;;;;;11.1;7.8;;;;;;;23.15;65.67285;940.2772;;;;
2019/08/27 19:14:10;;;;;;;13.1;8.3;;;;;;;23.1;66.05566;940.2902;;;;
2019/08/27 19:16:36;;;;;;;9.3;7.6;;;;;;;23.11;66.16113;940.2997;;;;
2019/08/27 19:19:11;;;;;;;8.3;7.5;;;;;;;23.04;66.53906;940.2673;;;;
2019/08/27 19:21:43;;;;;;;9.8;7.3;;;;;;;22.99;66.19043;940.3296;;;;
2019/08/27 19:24:12;;;;;;;10.8;7.9;;;;;;;22.92;66.69824;940.3628;;;;
2019/08/27 19:27:14;;;;;;;9.8;7.5;;;;;;;22.95;66.80762;940.4098;;;;
2019/08/27 19:29:31;;;;;;;10;8.3;;;;;;;22.89;66.79785;940.4191;;;;
2019/08/27 19:32:03;;;;;;;10.1;7.7;;;;;;;22.77;67.56738;940.387;;;;